Coahoma, Mississippi
Current Conditions -  °F | °C
As of 9:55 PM on Thursday 18 Dec 2014 (Local Time) from KCKM Reporting Station
Overcast Overcast  
Wind Chill: 40°   Ceiling: 3000
Heat Index: 45°   Visibility: 10mi
Dew Point: 41°   Wind: 9mph
Humidity: 87%   Direction: 30°NNE
Pressure: 30.24"   Gusts: NA
Location:  34.37°N, 90.52°W
Report Text: KCKM 190355Z AUTO 03008KT 10SM OVC030 07/05 A3024 RMK AO1
Loading
Personal Weather Stations






























Interactive Weather Map New forecast layout! Learn more

10-Day Weather Forecast

Advertisements
Track Severe Weather on mobile